Terminal Aerodrome Forecast
Issued by NWS

Home | Current Version | Previous Version | Text Only | Print | Product List | Glossary On
Versions: 1 2 3 4 5 6 7 8 9 10 11 12
575
FTUS45 KTFX 251131
TAFGTF
TAF
KGTF 251131Z 2512/2612 24011G19KT 6SM -SHRA SCT025 OVC040
      TEMPO 2512/2515 RA BKN025
     FM251500 30022G32KT P6SM SCT035 BKN060
     FM260000 32016KT P6SM SCT050 BKN090
     FM260400 27008KT P6SM SCT040 BKN080=

USA.gov is the U.S. government's official web portal to all federal, state and local government web resources and services.